Time;durP1;ratioP1;P1;durP2;ratioP2;P2;SDS_P1;SDS_P2;PMS_P1;PMS_P2;Temp;Humidity;BMP_temperature;BMP_pressure;BME280_temperature;BME280_humidity;BME280_pressure;Samples;Min_cycle;Max_cycle;Signal;HPM_P1;HPM_P2
2023/09/29 00:02:29;;;;;;;10.45;6.35;;;;;;;14.87;100.00;100733.56;12800514;23;20028;-79
2023/09/29 00:07:30;;;;;;;9.40;6.00;;;;;;;15.57;100.00;100841.03;12800113;23;20051;-79
2023/09/29 00:12:31;;;;;;;13.98;6.15;;;;;;;14.71;100.00;100715.88;12800595;23;20024;-80
2023/09/29 00:17:32;;;;;;;11.80;5.88;;;;;;;15.28;100.00;100810.63;12800486;23;20017;-79
2023/09/29 00:22:33;;;;;;;16.05;6.70;;;;;;;15.10;100.00;100788.78;12800179;23;20527;-79
2023/09/29 00:27:34;;;;;;;11.90;6.57;;;;;;;14.83;100.00;100751.81;12799537;23;20075;-80
2023/09/29 00:32:35;;;;;;;27.02;6.57;;;;;;;15.26;100.00;100824.22;12800341;23;20013;-79
2023/09/29 00:37:36;;;;;;;12.60;6.68;;;;;;;14.62;100.00;100727.69;12773694;23;20079;-80
2023/09/29 00:42:37;;;;;;;15.20;7.32;;;;;;;15.38;100.00;100855.88;12799058;23;20020;-79
2023/09/29 00:47:38;;;;;;;11.43;7.65;;;;;;;15.22;100.00;100832.78;12798774;23;20013;-80
2023/09/29 00:52:40;;;;;;;14.20;7.65;;;;;;;14.85;100.00;100789.09;12799626;23;20017;-80
2023/09/29 00:57:43;;;;;;;14.05;7.30;;;;;;;15.09;100.00;100846.84;12799931;23;20024;-85
2023/09/29 01:02:44;;;;;;;15.57;7.68;;;;;;;15.12;100.00;100840.28;12799374;23;20021;-80
2023/09/29 01:07:46;;;;;;;16.25;7.25;;;;;;;14.98;100.00;100828.56;12800158;23;20027;-80
2023/09/29 01:12:48;;;;;;;11.93;7.47;;;;;;;14.68;100.00;100792.97;12773241;23;20013;-80
2023/09/29 01:17:48;;;;;;;12.32;7.43;;;;;;;14.57;100.00;100778.22;12798771;23;20021;-80
2023/09/29 01:22:49;;;;;;;11.27;7.80;;;;;;;14.81;100.00;100825.25;12799713;23;20017;-80
2023/09/29 01:27:50;;;;;;;11.30;8.15;;;;;;;14.76;100.00;100823.13;12798173;23;20020;-80
2023/09/29 01:32:56;;;;;;;11.95;9.18;;;;;;;15.10;100.00;100893.16;12799607;23;20025;-80
2023/09/29 01:38:00;;;;;;;14.73;10.15;;;;;;;13.84;100.00;100680.88;12798190;23;20349;-81
2023/09/29 01:43:01;;;;;;;15.38;10.45;;;;;;;14.65;100.00;100814.72;12772346;23;20457;-80
2023/09/29 01:48:01;;;;;;;14.80;10.82;;;;;;;14.21;100.00;100746.81;12798773;23;20067;-80
2023/09/29 01:53:03;;;;;;;12.25;10.95;;;;;;;14.59;100.00;100801.06;12799068;23;20059;-80
2023/09/29 01:58:06;;;;;;;15.00;10.13;;;;;;;15.02;100.00;100875.34;12798404;23;20049;-81
2023/09/29 02:03:07;;;;;;;14.48;10.25;;;;;;;14.55;100.00;100793.59;12797406;23;20017;-82
2023/09/29 02:08:09;;;;;;;17.20;10.55;;;;;;;14.66;100.00;100819.91;12798795;23;20067;-80
2023/09/29 02:13:10;;;;;;;14.70;9.55;;;;;;;15.00;100.00;100883.56;12771372;23;20017;-83
2023/09/29 02:18:11;;;;;;;12.63;9.73;;;;;;;14.57;100.00;100819.16;12772031;23;20021;-81
2023/09/29 02:23:14;;;;;;;15.43;9.50;;;;;;;14.01;100.00;100743.81;12798274;23;20021;-82
2023/09/29 02:28:14;;;;;;;16.48;8.98;;;;;;;14.49;100.00;100816.50;12798094;23;20025;-82
2023/09/29 02:33:16;;;;;;;13.10;9.52;;;;;;;13.68;100.00;100689.84;12797576;23;20024;-78
2023/09/29 02:38:17;;;;;;;30.50;9.55;;;;;;;15.07;100.00;100916.56;12797644;23;20428;-80
2023/09/29 02:43:18;;;;;;;16.23;8.98;;;;;;;13.27;100.00;100647.47;12770209;23;20020;-81
2023/09/29 02:48:18;;;;;;;20.33;9.13;;;;;;;14.02;100.00;100774.84;12796247;23;20017;-81
2023/09/29 02:53:21;;;;;;;33.47;8.93;;;;;;;14.21;100.00;100812.75;12798402;23;20495;-80
2023/09/29 02:58:22;;;;;;;17.08;8.20;;;;;;;14.30;100.00;100849.13;12796293;23;20017;-82
2023/09/29 03:03:26;;;;;;;29.58;8.95;;;;;;;14.22;100.00;100831.28;12797813;23;20035;-81
2023/09/29 03:08:27;;;;;;;32.70;8.38;;;;;;;13.86;100.00;100769.66;12796870;23;20544;-79
2023/09/29 03:13:28;;;;;;;20.50;7.90;;;;;;;14.16;100.00;100816.81;12797810;23;20028;-82
2023/09/29 03:18:30;;;;;;;22.33;7.68;;;;;;;13.93;100.00;100782.09;12770564;23;20013;-81
2023/09/29 03:23:34;;;;;;;11.82;7.22;;;;;;;14.53;100.00;100870.47;12797067;23;20358;-81
2023/09/29 03:28:35;;;;;;;18.27;7.63;;;;;;;14.32;100.00;100823.84;12797715;23;20017;-81
2023/09/29 03:33:36;;;;;;;18.83;7.35;;;;;;;13.89;100.00;100748.75;12770702;23;20021;-81
2023/09/29 03:38:37;;;;;;;16.00;7.63;;;;;;;15.17;100.00;100913.66;12770838;23;20013;-81
2023/09/29 03:43:38;;;;;;;21.63;7.13;;;;;;;15.37;100.00;100927.28;12792026;23;20016;-76
2023/09/29 03:48:45;;;;;;;14.05;7.25;;;;;;;15.19;100.00;100876.81;12795406;23;20508;-74
2023/09/29 03:53:46;;;;;;;15.50;6.45;;;;;;;15.43;100.00;100854.25;12795027;23;20020;-73
2023/09/29 03:58:49;;;;;;;15.90;7.15;;;;;;;15.96;100.00;100865.59;12795488;23;20016;-77
2023/09/29 04:03:50;;;;;;;14.45;6.65;;;;;;;16.91;100.00;100936.00;12799220;23;20017;-70
2023/09/29 04:08:51;;;;;;;12.38;6.20;;;;;;;16.95;100.00;100829.09;12800427;23;20103;-74
2023/09/29 04:13:51;;;;;;;18.95;6.40;;;;;;;18.01;98.71;100931.66;12800126;23;20350;-74
2023/09/29 04:18:52;;;;;;;18.10;6.22;;;;;;;18.37;96.54;100898.22;12799678;23;20021;-78
2023/09/29 04:23:53;;;;;;;9.95;5.40;;;;;;;18.59;92.96;100886.19;12772574;23;20024;-83
2023/09/29 04:28:57;;;;;;;10.35;5.25;;;;;;;18.62;91.29;100888.47;12799925;23;20401;-77
2023/09/29 04:33:57;;;;;;;11.23;5.33;;;;;;;18.76;90.63;100910.03;12799349;23;20074;-77
2023/09/29 04:38:58;;;;;;;11.13;5.18;;;;;;;18.88;90.13;100935.28;12799367;23;20508;-77
2023/09/29 04:44:00;;;;;;;10.27;5.18;;;;;;;18.99;89.51;100947.28;12799494;23;20071;-73
2023/09/29 04:49:03;;;;;;;10.77;4.72;;;;;;;18.89;88.78;100900.06;12799585;23;20020;-79
2023/09/29 04:54:06;;;;;;;12.83;5.30;;;;;;;19.36;88.18;100946.59;12799069;23;20021;-78
2023/09/29 04:59:10;;;;;;;8.93;4.43;;;;;;;19.40;86.89;100944.31;12799892;23;20350;-78
2023/09/29 05:04:10;;;;;;;12.15;4.75;;;;;;;19.07;86.55;100864.41;12798964;23;20019;-78
2023/09/29 05:09:11;;;;;;;11.77;4.55;;;;;;;19.07;85.64;100823.19;12799114;23;20040;-78
2023/09/29 05:14:12;;;;;;;14.95;4.28;;;;;;;20.05;84.07;100942.41;12772114;23;20449;-78
2023/09/29 05:19:13;;;;;;;12.77;4.40;;;;;;;20.10;82.11;100927.44;12798346;23;20366;-77
2023/09/29 05:24:14;;;;;;;11.70;4.35;;;;;;;20.06;81.17;100875.81;12798780;23;20020;-77
2023/09/29 05:29:15;;;;;;;10.10;3.95;;;;;;;20.51;78.08;100935.88;12798993;23;20023;-82
2023/09/29 05:34:17;;;;;;;11.90;4.78;;;;;;;20.47;76.86;100874.47;12772791;23;20066;-78
2023/09/29 05:39:18;;;;;;;31.80;4.78;;;;;;;20.46;74.97;100849.38;12798756;23;20017;-79
2023/09/29 05:44:19;;;;;;;10.05;4.20;;;;;;;21.31;73.15;100946.00;12798625;23;20013;-78
2023/09/29 05:49:20;;;;;;;13.05;4.80;;;;;;;21.49;71.45;100947.91;12797827;23;20424;-78
2023/09/29 05:54:20;;;;;;;9.57;4.15;;;;;;;21.69;68.69;100944.97;12798588;23;20430;-80
2023/09/29 05:59:21;;;;;;;8.82;3.50;;;;;;;21.92;67.39;100946.97;12797457;23;20021;-78
2023/09/29 06:04:22;;;;;;;7.90;3.65;;;;;;;22.15;65.22;100954.34;12771177;23;20021;-78
2023/09/29 06:09:23;;;;;;;9.55;3.83;;;;;;;22.40;63.62;100951.50;12799332;23;20441;-79
2023/09/29 06:14:24;;;;;;;15.50;4.20;;;;;;;22.53;61.46;100931.56;12798648;23;20021;-79
2023/09/29 06:19:26;;;;;;;23.02;3.63;;;;;;;22.85;59.48;100945.59;12797881;23;20099;-77
2023/09/29 06:24:27;;;;;;;7.22;3.58;;;;;;;22.63;58.07;100896.59;12770404;23;20067;-77
2023/09/29 06:29:27;;;;;;;13.48;3.80;;;;;;;23.06;56.50;100949.63;12798078;23;20075;-80
2023/09/29 06:34:28;;;;;;;8.48;3.45;;;;;;;23.24;55.42;100951.38;12798710;23;20338;-80
2023/09/29 06:39:29;;;;;;;10.32;4.05;;;;;;;23.38;54.37;100930.28;12796962;23;20017;-77
2023/09/29 06:44:32;;;;;;;10.88;3.42;;;;;;;23.73;53.44;100937.53;12797698;23;20013;-80
2023/09/29 06:49:33;;;;;;;10.27;3.95;;;;;;;23.74;51.81;100914.78;12797020;23;20420;-78
2023/09/29 06:54:34;;;;;;;101.63;55.55;;;;;;;24.14;51.16;100941.84;12771339;23;20088;-78
2023/09/29 06:59:35;;;;;;;10.82;7.15;;;;;;;24.22;49.07;100929.78;12771856;23;20060;-79
2023/09/29 07:04:36;;;;;;;19.20;8.80;;;;;;;24.30;48.73;100913.91;12771210;23;20045;-78
2023/09/29 07:09:38;;;;;;;9.30;3.72;;;;;;;24.37;47.32;100889.31;12796777;23;20028;-79
2023/09/29 07:14:39;;;;;;;9.07;3.83;;;;;;;24.41;46.35;100885.03;12797471;23;20020;-79
2023/09/29 07:19:39;;;;;;;10.23;3.72;;;;;;;24.89;45.83;100929.84;12771210;23;20021;-78
2023/09/29 07:24:41;;;;;;;9.82;3.35;;;;;;;25.10;45.51;100925.53;12796664;23;20017;-77
2023/09/29 07:29:42;;;;;;;17.10;4.25;;;;;;;24.83;44.92;100838.44;12797225;23;20016;-79
2023/09/29 07:34:43;;;;;;;14.85;4.30;;;;;;;25.40;43.74;100918.88;12796508;23;20013;-74
2023/09/29 07:39:44;;;;;;;11.75;3.92;;;;;;;25.38;43.20;100885.66;12800666;23;20079;-79
2023/09/29 07:44:44;;;;;;;13.00;4.10;;;;;;;25.82;42.35;100894.63;12801372;23;20044;-76
2023/09/29 07:49:45;;;;;;;18.35;3.95;;;;;;;25.60;42.17;100866.59;12800204;23;20095;-76
2023/09/29 07:54:46;;;;;;;9.95;3.35;;;;;;;25.72;40.75;100902.66;12800810;23;20067;-75
2023/09/29 07:59:47;;;;;;;39.65;4.53;;;;;;;25.58;41.18;100841.56;12799916;23;20044;-76
2023/09/29 08:04:47;;;;;;;17.00;4.18;;;;;;;25.78;40.18;100888.00;12773745;23;20020;-77
2023/09/29 08:09:49;;;;;;;17.38;4.05;;;;;;;25.80;39.35;100879.59;12800633;23;20074;-76
2023/09/29 08:14:50;;;;;;;18.85;3.78;;;;;;;25.69;39.05;100835.94;12799846;23;20093;-77
2023/09/29 08:19:51;;;;;;;17.33;4.00;;;;;;;25.54;38.28;100789.53;12773938;23;20017;-75
2023/09/29 08:24:52;;;;;;;15.02;3.45;;;;;;;26.09;38.08;100866.59;12801025;23;20079;-75
2023/09/29 08:29:52;;;;;;;15.15;4.00;;;;;;;26.27;37.69;100860.75;12800159;23;20357;-75
2023/09/29 08:34:53;;;;;;;17.88;3.80;;;;;;;26.57;37.09;100868.38;12800124;23;20020;-76
2023/09/29 08:39:54;;;;;;;14.52;4.20;;;;;;;26.71;36.55;100851.56;12799050;23;20108;-76
2023/09/29 08:44:59;;;;;;;15.50;4.25;;;;;;;26.70;35.08;100853.47;12799463;23;20013;-76
2023/09/29 08:50:04;;;;;;;11.57;3.97;;;;;;;26.74;35.72;100856.47;12799567;23;20373;-76
2023/09/29 08:55:05;;;;;;;17.15;5.88;;;;;;;26.86;35.64;100847.03;12798934;23;20017;-77
2023/09/29 09:00:07;;;;;;;22.38;4.90;;;;;;;26.82;34.98;100824.09;12773344;23;20024;-77
2023/09/29 09:05:10;;;;;;;19.40;4.30;;;;;;;26.78;34.07;100814.81;12799683;23;20013;-77
2023/09/29 09:10:12;;;;;;;14.07;4.15;;;;;;;26.68;34.98;100806.56;12799138;23;20017;-76
2023/09/29 09:15:24;;;;;;;15.68;6.90;;;;;;;26.99;33.04;100817.66;12798546;23;20374;-74
2023/09/29 09:20:25;;;;;;;18.42;5.07;;;;;;;27.05;33.18;100819.31;12798431;23;20366;-75
2023/09/29 09:25:41;;;;;;;22.70;6.32;;;;;;;27.03;33.18;100822.28;12799214;23;20040;-75
2023/09/29 09:30:42;;;;;;;28.60;5.80;;;;;;;27.06;33.54;100815.47;12799072;23;20020;-75
2023/09/29 09:35:44;;;;;;;21.55;4.55;;;;;;;27.02;32.89;100806.22;12798766;23;20020;-75
2023/09/29 09:40:47;;;;;;;25.90;7.82;;;;;;;26.64;33.02;100742.78;12799091;23;20424;-77
2023/09/29 09:45:50;;;;;;;22.08;5.13;;;;;;;26.71;31.82;100737.09;12799575;23;20461;-75
2023/09/29 09:50:56;;;;;;;17.87;5.30;;;;;;;27.19;32.11;100779.59;12798603;23;20338;-75
2023/09/29 09:56:10;;;;;;;21.30;4.75;;;;;;;26.89;31.20;100711.25;12797656;23;20021;-77
2023/09/29 10:01:11;;;;;;;14.98;4.25;;;;;;;27.29;31.59;100771.41;12797763;23;20099;-75
2023/09/29 10:06:13;;;;;;;19.58;5.30;;;;;;;27.00;31.69;100773.75;12798761;23;20049;-76
2023/09/29 10:11:15;;;;;;;21.42;4.93;;;;;;;26.96;32.01;100783.56;12797929;23;20013;-76
2023/09/29 10:16:26;;;;;;;27.98;5.00;;;;;;;27.04;30.41;100782.19;12798161;23;20049;-74
2023/09/29 10:21:33;;;;;;;21.05;4.32;;;;;;;26.87;31.69;100766.06;12797171;23;20101;-76
2023/09/29 10:26:51;;;;;;;23.73;5.55;;;;;;;26.88;30.75;100732.25;12798250;23;20345;-75
2023/09/29 10:31:56;;;;;;;17.52;4.85;;;;;;;26.99;31.07;100771.28;12797135;23;20099;-75
2023/09/29 10:36:57;;;;;;;21.33;4.72;;;;;;;27.16;31.10;100766.44;12797031;23;20381;-76
2023/09/29 10:42:14;;;;;;;17.20;4.68;;;;;;;27.09;30.56;100738.59;12797091;23;20036;-76
2023/09/29 10:47:16;;;;;;;26.27;4.57;;;;;;;27.08;30.46;100720.59;12797770;23;20467;-76
2023/09/29 10:52:22;;;;;;;18.60;4.43;;;;;;;27.27;30.23;100740.03;12798031;23;20044;-75
2023/09/29 10:57:25;;;;;;;20.35;4.07;;;;;;;27.04;29.95;100679.44;12770893;23;20024;-77
2023/09/29 11:02:30;;;;;;;16.70;4.00;;;;;;;27.03;29.49;100706.94;12796701;23;20080;-75
2023/09/29 11:07:51;;;;;;;13.00;3.95;;;;;;;27.21;28.77;100755.56;12796846;23;20071;-77
2023/09/29 11:12:52;;;;;;;17.80;3.92;;;;;;;26.88;28.83;100743.16;12800208;23;20024;-77
2023/09/29 11:17:52;;;;;;;16.08;4.30;;;;;;;26.60;29.08;100690.72;12801506;23;20021;-76
2023/09/29 11:23:11;;;;;;;12.55;3.78;;;;;;;26.26;27.92;100645.84;12801274;23;20016;-77
2023/09/29 11:28:13;;;;;;;15.25;4.32;;;;;;;26.34;29.10;100686.22;12801495;23;20017;-77
2023/09/29 11:33:17;;;;;;;21.77;4.25;;;;;;;26.37;28.66;100724.63;12801330;23;20434;-76
2023/09/29 11:38:20;;;;;;;18.05;3.90;;;;;;;26.35;28.43;100743.13;12774930;23;20048;-77
2023/09/29 11:43:21;;;;;;;22.98;4.53;;;;;;;26.08;29.08;100704.31;12801074;23;20012;-76
2023/09/29 11:48:22;;;;;;;20.50;3.90;;;;;;;26.08;29.25;100707.03;12800297;23;20349;-76
2023/09/29 11:53:23;;;;;;;15.10;4.28;;;;;;;26.13;28.90;100728.84;12800437;23;20049;-78
2023/09/29 11:58:24;;;;;;;15.15;3.97;;;;;;;26.05;29.10;100726.59;12800977;23;20017;-76
2023/09/29 12:03:25;;;;;;;10.20;3.55;;;;;;;26.05;29.02;100730.16;12800665;23;20456;-76
2023/09/29 12:08:26;;;;;;;27.33;4.13;;;;;;;26.00;29.43;100721.97;12800323;23;20017;-76
2023/09/29 12:13:26;;;;;;;27.85;3.80;;;;;;;25.93;29.73;100722.16;12774770;23;20020;-77
2023/09/29 12:18:27;;;;;;;18.90;3.70;;;;;;;25.78;30.20;100722.00;12800317;23;20027;-76
2023/09/29 12:23:28;;;;;;;17.20;3.55;;;;;;;25.66;30.35;100727.63;12798618;23;20017;-77
2023/09/29 12:28:29;;;;;;;23.55;4.07;;;;;;;25.56;30.83;100724.00;12799624;23;20021;-78
2023/09/29 12:33:30;;;;;;;11.82;3.90;;;;;;;25.22;30.87;100678.03;12799310;23;20051;-76
2023/09/29 12:38:31;;;;;;;13.40;3.78;;;;;;;25.51;31.46;100722.06;12800167;23;20468;-77
2023/09/29 12:43:32;;;;;;;10.57;3.55;;;;;;;25.49;31.27;100719.59;12799950;23;20124;-76
2023/09/29 12:48:33;;;;;;;60.30;5.30;;;;;;;25.44;31.58;100727.72;12773411;23;20081;-76
2023/09/29 12:53:33;;;;;;;11.93;3.63;;;;;;;25.26;31.94;100701.72;12799089;23;20013;-76
2023/09/29 12:58:34;;;;;;;18.73;4.57;;;;;;;25.09;32.38;100690.06;12799343;23;20021;-77
2023/09/29 13:03:37;;;;;;;16.30;4.53;;;;;;;25.18;31.85;100732.06;12797397;23;20107;-80
2023/09/29 13:08:38;;;;;;;13.87;4.03;;;;;;;24.78;32.01;100676.16;12798089;23;20024;-79
2023/09/29 13:13:39;;;;;;;14.82;3.10;;;;;;;24.97;32.17;100720.13;12798000;23;20569;-76
2023/09/29 13:18:40;;;;;;;10.50;3.10;;;;;;;24.75;32.12;100700.31;12797955;23;20021;-77
2023/09/29 13:23:43;;;;;;;15.32;3.28;;;;;;;24.53;32.54;100682.13;12797844;23;20020;-76
2023/09/29 13:28:45;;;;;;;19.60;3.00;;;;;;;24.57;32.71;100715.84;12796726;23;20045;-79
2023/09/29 13:33:46;;;;;;;15.00;3.38;;;;;;;24.12;32.95;100672.56;12797704;23;20017;-80
2023/09/29 13:38:48;;;;;;;27.95;4.15;;;;;;;23.92;33.14;100651.38;12797186;23;20505;-83
2023/09/29 13:43:49;;;;;;;15.00;3.55;;;;;;;24.27;33.36;100727.06;12797556;23;20017;-77
2023/09/29 13:48:50;;;;;;;45.67;4.47;;;;;;;23.84;34.01;100677.06;12798106;23;20036;-78
2023/09/29 13:53:50;;;;;;;17.83;3.45;;;;;;;23.81;34.07;100688.41;12797501;23;20017;-82
2023/09/29 13:58:51;;;;;;;12.88;3.05;;;;;;;23.59;34.27;100666.56;12797570;23;20025;-80
2023/09/29 14:03:56;;;;;;;19.85;3.25;;;;;;;23.62;35.06;100695.91;12797830;23;20040;-77
2023/09/29 14:08:56;;;;;;;20.27;3.42;;;;;;;23.68;34.85;100724.75;12797012;23;20013;-78
2023/09/29 14:13:57;;;;;;;17.90;3.22;;;;;;;22.83;35.37;100613.72;12797260;23;20159;-77
2023/09/29 14:18:58;;;;;;;9.90;2.95;;;;;;;23.43;35.61;100732.47;12796269;23;20024;-77
2023/09/29 14:23:59;;;;;;;14.65;3.42;;;;;;;23.09;35.92;100705.25;12796885;23;20052;-78
2023/09/29 14:29:00;;;;;;;52.05;4.07;;;;;;;22.88;36.17;100693.19;12796074;23;20021;-77
2023/09/29 14:34:00;;;;;;;32.05;3.63;;;;;;;22.79;36.52;100705.44;12797920;23;20449;-77
2023/09/29 14:39:01;;;;;;;44.55;4.53;;;;;;;22.77;37.07;100734.69;12796857;23;20032;-77
2023/09/29 14:44:02;;;;;;;33.65;4.47;;;;;;;22.13;37.64;100680.47;12797022;23;20041;-78
2023/09/29 14:49:03;;;;;;;25.40;4.43;;;;;;;22.43;37.99;100739.91;12797898;23;20017;-77
2023/09/29 14:54:04;;;;;;;26.98;3.85;;;;;;;22.07;38.56;100717.41;12796873;23;20031;-77
2023/09/29 14:59:06;;;;;;;21.20;3.13;;;;;;;22.13;38.97;100753.53;12797312;23;20393;-75
2023/09/29 15:04:07;;;;;;;22.17;2.90;;;;;;;21.98;39.44;100753.16;12796788;23;20013;-74
2023/09/29 15:09:08;;;;;;;29.05;3.75;;;;;;;21.62;39.96;100722.53;12796979;23;20021;-75
2023/09/29 15:14:09;;;;;;;44.33;4.13;;;;;;;21.67;39.93;100747.00;12796739;23;20020;-74
2023/09/29 15:19:16;;;;;;;32.00;4.78;;;;;;;21.07;40.56;100684.84;12796446;23;20386;-73
2023/09/29 15:24:17;;;;;;;43.83;4.78;;;;;;;21.35;40.88;100752.63;12793633;23;20024;-72
2023/09/29 15:29:20;;;;;;;40.80;4.65;;;;;;;20.88;41.18;100700.25;12796234;23;20024;-76
2023/09/29 15:34:30;;;;;;;37.50;4.10;;;;;;;20.55;42.17;100668.28;12796766;23;20045;-89
2023/09/29 15:39:30;;;;;;;36.28;3.65;;;;;;;20.67;41.87;100715.91;12793414;23;20079;-85
2023/09/29 15:44:31;;;;;;;41.47;4.40;;;;;;;20.51;42.20;100701.06;12768797;23;20141;-83
2023/09/29 15:49:43;;;;;;;37.28;4.32;;;;;;;20.38;43.07;100701.22;12794351;23;20059;-88
2023/09/29 15:54:46;;;;;;;36.97;4.55;;;;;;;20.47;42.96;100720.66;12796546;23;20027;-80
2023/09/29 15:59:47;;;;;;;37.17;4.33;;;;;;;20.24;43.63;100694.31;12797324;23;20048;-75
2023/09/29 16:04:48;;;;;;;32.47;3.92;;;;;;;20.55;44.21;100760.03;12774215;23;20013;-77
2023/09/29 16:09:49;;;;;;;26.55;3.53;;;;;;;20.37;44.92;100742.75;12799843;23;20017;-80
2023/09/29 16:14:50;;;;;;;21.45;3.33;;;;;;;20.32;45.79;100758.78;12800679;23;20020;-75
2023/09/29 16:19:51;;;;;;;14.27;3.00;;;;;;;20.24;46.68;100765.28;12800399;23;20521;-76
2023/09/29 16:24:52;;;;;;;12.57;2.92;;;;;;;19.99;46.77;100746.41;12771058;23;20030;-78
2023/09/29 16:29:52;;;;;;;6.28;2.42;;;;;;;20.08;47.62;100767.72;12799049;23;20339;-76
2023/09/29 16:34:55;;;;;;;12.38;2.70;;;;;;;19.53;48.09;100688.28;12799098;23;20389;-77
2023/09/29 16:39:56;;;;;;;8.57;2.67;;;;;;;19.86;48.68;100770.78;12797246;23;20021;-77
2023/09/29 16:44:57;;;;;;;7.50;2.60;;;;;;;19.80;49.50;100763.56;12795661;23;20048;-78
2023/09/29 16:50:08;;;;;;;11.88;2.78;;;;;;;19.73;50.77;100768.19;12795582;23;20501;-86
2023/09/29 16:55:09;;;;;;;8.13;2.47;;;;;;;19.20;50.17;100698.44;12770348;23;20025;-82
2023/09/29 17:00:11;;;;;;;7.45;2.80;;;;;;;19.19;51.16;100719.16;12799355;23;20063;-80
2023/09/29 17:05:11;;;;;;;5.68;2.47;;;;;;;19.41;51.29;100749.28;12800171;23;20021;-77
2023/09/29 17:10:12;;;;;;;13.23;3.22;;;;;;;18.69;51.98;100657.03;12799047;23;20012;-85
2023/09/29 17:15:13;;;;;;;4.63;2.15;;;;;;;18.90;52.11;100691.72;12798691;23;20017;-86
2023/09/29 17:20:14;;;;;;;8.20;2.35;;;;;;;19.19;52.42;100747.97;12798365;23;20032;-75
2023/09/29 17:25:16;;;;;;;7.00;2.45;;;;;;;19.13;52.88;100761.22;12798258;23;20021;-78
2023/09/29 17:30:17;;;;;;;13.68;2.97;;;;;;;18.93;53.41;100747.88;12798947;23;20017;-78
2023/09/29 17:35:39;;;;;;;11.10;2.85;;;;;;;19.02;53.72;100771.84;12799073;23;20044;-84
2023/09/29 17:40:40;;;;;;;12.00;2.72;;;;;;;18.87;54.28;100770.22;12798562;23;20467;-77
2023/09/29 17:45:41;;;;;;;35.47;3.10;;;;;;;18.55;54.89;100742.38;12798398;23;20475;-80
2023/09/29 17:50:45;;;;;;;9.63;2.83;;;;;;;18.67;55.02;100769.47;12798470;23;20045;-77
2023/09/29 17:55:47;;;;;;;9.57;2.78;;;;;;;18.53;55.50;100762.44;12796731;23;20023;-86
2023/09/29 18:00:49;;;;;;;8.70;2.72;;;;;;;18.45;55.71;100756.22;12799105;23;20032;-85
2023/09/29 18:05:51;;;;;;;7.88;2.55;;;;;;;18.14;56.03;100721.94;12798357;23;20048;-82
2023/09/29 18:10:52;;;;;;;6.65;2.38;;;;;;;17.97;56.44;100701.88;12797627;23;20017;-85
2023/09/29 18:15:55;;;;;;;7.78;2.47;;;;;;;18.16;56.99;100751.31;12798057;23;20017;-82
2023/09/29 18:20:59;;;;;;;5.47;1.92;;;;;;;18.21;56.92;100760.41;12798020;23;20012;-82
2023/09/29 18:26:01;;;;;;;4.50;2.17;;;;;;;18.15;57.60;100763.09;12797227;23;20024;-82
2023/09/29 18:31:06;;;;;;;8.90;2.55;;;;;;;17.99;58.57;100750.91;12798917;23;20024;-82
2023/09/29 18:36:08;;;;;;;7.97;2.05;;;;;;;18.02;58.50;100766.63;12797720;23;20013;-82
2023/09/29 18:41:16;;;;;;;7.28;2.28;;;;;;;17.88;59.62;100760.41;12797136;23;20016;-78
2023/09/29 18:46:17;;;;;;;5.25;2.33;;;;;;;17.74;59.36;100748.81;12797713;23;20017;-79
2023/09/29 18:51:18;;;;;;;8.57;2.40;;;;;;;17.62;59.91;100744.22;12797289;23;20079;-79
2023/09/29 18:56:19;;;;;;;10.23;2.35;;;;;;;17.68;60.58;100764.88;12797646;23;20434;-80
2023/09/29 19:01:20;;;;;;;4.75;2.45;;;;;;;17.51;60.84;100740.28;12796720;23;20013;-80
2023/09/29 19:06:22;;;;;;;8.60;2.28;;;;;;;17.13;61.35;100694.34;12796871;23;20088;-80
2023/09/29 19:11:25;;;;;;;10.63;2.60;;;;;;;17.45;61.75;100749.16;12798071;23;20024;-80
2023/09/29 19:16:26;;;;;;;18.30;2.58;;;;;;;17.34;62.22;100732.59;12797672;23;20052;-81
2023/09/29 19:21:26;;;;;;;11.77;2.50;;;;;;;17.13;62.94;100707.75;12796411;23;20500;-79
2023/09/29 19:26:28;;;;;;;12.40;2.60;;;;;;;17.29;63.53;100743.13;12797420;23;20024;-79
2023/09/29 19:31:29;;;;;;;8.20;2.63;;;;;;;16.94;63.99;100683.34;12798142;23;20028;-79
2023/09/29 19:36:31;;;;;;;6.75;2.53;;;;;;;16.71;64.67;100656.81;12801489;23;20027;-81
2023/09/29 19:41:32;;;;;;;6.53;2.50;;;;;;;17.16;65.44;100724.28;12802052;23;20044;-79
2023/09/29 19:46:33;;;;;;;7.97;2.40;;;;;;;16.99;66.02;100701.50;12774692;23;20071;-84
2023/09/29 19:51:34;;;;;;;8.23;2.47;;;;;;;17.16;66.38;100723.47;12800836;23;20040;-79
2023/09/29 19:56:34;;;;;;;6.72;2.85;;;;;;;16.79;67.04;100670.09;12800757;23;20109;-82
2023/09/29 20:01:35;;;;;;;6.95;2.85;;;;;;;17.10;67.62;100717.88;12800762;23;20023;-79
2023/09/29 20:06:36;;;;;;;19.50;3.25;;;;;;;16.69;67.98;100649.97;12773643;23;20016;-78
2023/09/29 20:11:40;;;;;;;9.60;3.40;;;;;;;16.93;68.09;100688.91;12800032;23;20013;-80
2023/09/29 20:16:40;;;;;;;7.53;3.10;;;;;;;17.04;68.51;100704.44;12799925;23;20013;-81
2023/09/29 20:21:42;;;;;;;6.85;3.65;;;;;;;16.97;69.28;100696.38;12800780;23;20075;-78
2023/09/29 20:26:42;;;;;;;7.72;3.40;;;;;;;16.94;69.94;100690.56;12799270;23;20021;-80
2023/09/29 20:31:43;;;;;;;14.23;3.53;;;;;;;16.43;70.34;100624.72;12799178;23;20135;-78
2023/09/29 20:36:45;;;;;;;11.55;3.47;;;;;;;16.51;70.74;100646.00;12799304;23;20096;-78
2023/09/29 20:41:46;;;;;;;7.75;3.40;;;;;;;16.75;70.96;100701.00;12799254;23;20016;-78
2023/09/29 20:46:47;;;;;;;8.90;3.08;;;;;;;16.34;71.66;100645.50;12799591;23;20067;-79
2023/09/29 20:51:48;;;;;;;8.05;2.83;;;;;;;16.07;72.02;100606.19;12798854;23;20041;-80
2023/09/29 20:56:49;;;;;;;6.13;3.30;;;;;;;16.33;72.32;100678.72;12799652;23;20017;-79
2023/09/29 21:01:50;;;;;;;10.77;3.45;;;;;;;16.40;72.88;100698.34;12799928;23;20475;-79
2023/09/29 21:06:51;;;;;;;9.93;3.08;;;;;;;16.12;73.16;100668.03;12799823;23;20041;-79
2023/09/29 21:11:52;;;;;;;10.00;3.22;;;;;;;15.40;73.77;100557.47;12798599;23;20013;-78
2023/09/29 21:16:52;;;;;;;9.65;3.47;;;;;;;16.23;73.98;100702.34;12799078;23;20095;-79
2023/09/29 21:21:53;;;;;;;11.32;3.38;;;;;;;15.87;74.44;100651.59;12798596;23;20016;-80
2023/09/29 21:26:55;;;;;;;14.13;3.58;;;;;;;16.09;74.79;100700.59;12798640;23;20365;-78
2023/09/29 21:31:56;;;;;;;15.18;3.75;;;;;;;15.76;75.61;100669.03;12799053;23;20020;-78
2023/09/29 21:36:56;;;;;;;12.15;3.30;;;;;;;15.42;75.86;100616.19;12798578;23;20029;-78
2023/09/29 21:41:57;;;;;;;10.40;3.60;;;;;;;15.81;76.42;100688.03;12798207;23;20063;-78
2023/09/29 21:46:58;;;;;;;10.52;3.28;;;;;;;15.83;76.82;100687.84;12799293;23;20044;-78
2023/09/29 21:51:59;;;;;;;10.80;3.80;;;;;;;15.34;77.23;100616.31;12799495;23;20422;-77
2023/09/29 21:57:00;;;;;;;27.52;3.90;;;;;;;15.70;77.61;100688.53;12797658;23;20017;-78
2023/09/29 22:02:01;;;;;;;9.00;3.53;;;;;;;15.62;78.05;100686.00;12798673;23;20017;-78
2023/09/29 22:07:02;;;;;;;12.35;3.67;;;;;;;15.52;78.46;100683.63;12797830;23;20013;-78
2023/09/29 22:12:03;;;;;;;9.45;3.92;;;;;;;15.48;79.00;100688.53;12798960;23;20075;-78
2023/09/29 22:17:04;;;;;;;8.77;3.85;;;;;;;15.50;79.47;100694.53;12798137;23;20021;-78
2023/09/29 22:22:05;;;;;;;13.02;4.75;;;;;;;15.01;79.87;100617.66;12798912;23;20028;-78
2023/09/29 22:27:06;;;;;;;10.10;4.13;;;;;;;15.26;80.41;100668.97;12797757;23;20020;-78
2023/09/29 22:32:07;;;;;;;9.55;3.65;;;;;;;15.35;81.01;100685.75;12797988;23;20017;-78
2023/09/29 22:37:07;;;;;;;7.65;4.00;;;;;;;14.89;81.17;100611.16;12797573;23;20021;-78
2023/09/29 22:42:08;;;;;;;5.50;3.80;;;;;;;15.05;81.40;100647.56;12797878;23;20106;-78
2023/09/29 22:47:09;;;;;;;8.48;3.90;;;;;;;15.00;82.02;100655.31;12797118;23;20092;-78
2023/09/29 22:52:10;;;;;;;9.27;3.97;;;;;;;14.74;82.60;100613.06;12797568;23;20044;-78